Time;durP1;ratioP1;P1;durP2;ratioP2;P2;SDS_P1;SDS_P2;PMS_P1;PMS_P2;Temp;Humidity;BMP_temperature;BMP_pressure;BME280_temperature;BME280_humidity;BME280_pressure;Samples;Min_cycle;Max_cycle;Signal;HPM_P1;HPM_P2
2021/07/17 00:00:11;;;;;;;3.58;2.40;;;;;;;22.02;64.68;94201.97;2960619;40;20365;-83
2021/07/17 00:02:13;;;;;;;4.85;2.22;;;;;;;22.11;64.25;94194.34;2960830;40;20432;-83
2021/07/17 00:04:15;;;;;;;4.00;2.50;;;;;;;22.23;63.65;94199.66;2960088;40;20487;-81
2021/07/17 00:06:22;;;;;;;4.38;2.40;;;;;;;22.13;64.08;94199.47;2962327;40;20460;-81
2021/07/17 00:08:24;;;;;;;3.92;2.40;;;;;;;22.18;63.62;94196.88;2962625;40;20141;-83
2021/07/17 00:10:38;;;;;;;4.30;2.25;;;;;;;22.28;63.45;94197.06;2960062;40;20085;-84
2021/07/17 00:12:41;;;;;;;4.47;2.17;;;;;;;22.40;63.19;94197.78;2960037;40;20324;-83
2021/07/17 00:14:42;;;;;;;4.38;2.45;;;;;;;22.49;62.73;94190.16;2961107;40;20409;-82
2021/07/17 00:16:44;;;;;;;5.63;2.65;;;;;;;22.45;62.92;94191.69;2960038;40;20118;-70
2021/07/17 00:18:46;;;;;;;3.90;1.95;;;;;;;22.51;62.67;94185.38;2966468;40;20060;-69
2021/07/17 00:20:49;;;;;;;4.50;2.55;;;;;;;22.46;62.36;94191.47;2958655;40;20615;-70
2021/07/17 00:22:51;;;;;;;2.80;2.10;;;;;;;22.56;62.20;94189.97;2953547;40;20065;-69
2021/07/17 00:24:53;;;;;;;2.92;2.13;;;;;;;22.58;61.99;94191.34;2956738;40;20052;-71
2021/07/17 00:26:55;;;;;;;7.35;2.03;;;;;;;22.62;61.91;94194.34;2957581;40;20322;-70
2021/07/17 00:28:56;;;;;;;6.20;2.55;;;;;;;22.46;62.11;94199.47;2959228;40;20060;-67
2021/07/17 00:30:58;;;;;;;5.15;2.75;;;;;;;22.44;62.32;94192.75;2958328;40;20112;-69
2021/07/17 00:33:00;;;;;;;3.97;2.50;;;;;;;22.49;62.08;94196.28;2955799;40;20068;-70
2021/07/17 00:35:04;;;;;;;4.63;2.40;;;;;;;22.60;61.86;94194.56;2959087;40;20048;-68
2021/07/17 00:37:05;;;;;;;4.35;2.38;;;;;;;22.74;61.06;94195.03;2958918;40;20421;-69
2021/07/17 00:39:07;;;;;;;4.05;2.65;;;;;;;22.65;61.49;94196.50;2954825;40;20384;-83
2021/07/17 00:41:09;;;;;;;3.85;2.40;;;;;;;22.58;61.38;94201.22;2959803;40;20101;-84
2021/07/17 00:43:11;;;;;;;4.05;2.65;;;;;;;22.62;61.38;94189.00;2950700;40;20085;-82
2021/07/17 00:45:13;;;;;;;3.45;2.25;;;;;;;22.67;61.16;94183.72;2961008;40;20060;-82
2021/07/17 00:47:14;;;;;;;3.30;2.50;;;;;;;22.67;61.00;94186.38;2967441;40;20052;-82
2021/07/17 00:49:20;;;;;;;3.47;2.78;;;;;;;22.75;60.79;94175.28;2960479;40;20114;-83
2021/07/17 00:51:25;;;;;;;5.03;2.60;;;;;;;22.81;60.39;94173.50;2944610;40;20116;-84
2021/07/17 00:53:27;;;;;;;4.07;2.53;;;;;;;22.60;61.38;94177.75;2952042;40;20337;-84
2021/07/17 00:55:30;;;;;;;4.57;2.47;;;;;;;22.70;61.17;94173.38;2952407;40;20045;-81
2021/07/17 00:57:33;;;;;;;4.57;2.80;;;;;;;22.74;60.95;94175.56;2960642;40;20111;-83
2021/07/17 00:59:36;;;;;;;2.72;2.25;;;;;;;22.48;61.00;94170.69;2955859;40;20069;-85
2021/07/17 01:01:38;;;;;;;4.57;3.03;;;;;;;21.78;63.93;94171.16;2951481;40;20053;-81
2021/07/17 01:03:40;;;;;;;5.53;2.83;;;;;;;21.37;65.52;94171.22;2958930;40;20397;-83
2021/07/17 01:05:50;;;;;;;5.90;2.55;;;;;;;21.32;65.61;94168.50;2951923;40;20042;-81
2021/07/17 01:08:10;;;;;;;4.30;2.90;;;;;;;21.54;64.92;94157.19;2950848;40;20049;-82
2021/07/17 01:10:12;;;;;;;3.90;2.60;;;;;;;21.59;64.78;94154.59;2945717;40;20142;-83
2021/07/17 01:12:14;;;;;;;5.80;3.00;;;;;;;21.63;64.71;94156.53;2952043;40;20073;-83
2021/07/17 01:14:16;;;;;;;7.80;3.08;;;;;;;21.67;64.60;94157.66;2951644;40;20061;-83
2021/07/17 01:16:18;;;;;;;5.65;2.83;;;;;;;21.56;65.08;94158.53;2951657;40;20098;-69
2021/07/17 01:18:20;;;;;;;3.00;2.50;;;;;;;21.56;65.31;94155.88;2951682;40;20077;-68
2021/07/17 01:20:22;;;;;;;9.23;2.72;;;;;;;21.74;64.47;94154.03;2949133;40;20353;-69
2021/07/17 01:22:24;;;;;;;5.00;2.73;;;;;;;21.87;64.28;94159.03;2950445;40;20123;-69
2021/07/17 01:24:26;;;;;;;5.95;3.20;;;;;;;21.90;63.79;94158.56;2949739;40;20427;-69
2021/07/17 01:26:28;;;;;;;5.50;3.40;;;;;;;21.85;64.28;94156.66;2949850;40;20086;-71
2021/07/17 01:28:30;;;;;;;4.90;2.75;;;;;;;21.92;64.32;94151.16;2950076;40;20097;-68
2021/07/17 01:30:36;;;;;;;4.78;2.83;;;;;;;22.03;63.81;94154.78;2957582;40;20178;-70
2021/07/17 01:32:38;;;;;;;5.07;3.10;;;;;;;22.06;63.56;94149.75;2942849;40;20110;-70
2021/07/17 01:34:40;;;;;;;4.60;2.90;;;;;;;22.03;63.81;94147.59;2949424;40;20045;-69
2021/07/17 01:36:41;;;;;;;4.15;2.58;;;;;;;22.15;63.27;94152.81;2950195;40;20414;-70
2021/07/17 01:38:43;;;;;;;6.53;2.92;;;;;;;22.17;63.09;94139.22;2949896;40;20284;-69
2021/07/17 01:40:48;;;;;;;4.32;3.20;;;;;;;22.04;63.79;94143.03;2949051;40;20263;-70
2021/07/17 01:42:53;;;;;;;4.50;2.72;;;;;;;22.06;63.85;94141.75;2948956;40;20081;-68
2021/07/17 01:44:55;;;;;;;4.00;2.90;;;;;;;22.20;63.19;94133.41;2953838;40;20048;-70
2021/07/17 01:46:56;;;;;;;6.22;2.83;;;;;;;22.42;62.75;94130.81;2951952;40;20138;-68
2021/07/17 01:48:58;;;;;;;5.35;3.08;;;;;;;22.48;62.52;94132.50;2961002;40;20282;-70
2021/07/17 01:51:00;;;;;;;5.75;2.85;;;;;;;22.56;62.25;94133.94;2960838;40;20525;-69
2021/07/17 01:53:03;;;;;;;3.80;2.90;;;;;;;22.65;61.80;94129.75;2960251;40;20444;-69
2021/07/17 01:55:06;;;;;;;4.78;3.22;;;;;;;22.76;61.31;94133.38;2964869;40;20060;-70
2021/07/17 01:57:08;;;;;;;5.22;2.80;;;;;;;22.79;61.51;94128.34;2967027;40;20099;-69
2021/07/17 01:59:11;;;;;;;4.30;3.08;;;;;;;22.85;61.04;94124.69;2965622;40;20100;-68
2021/07/17 02:01:12;;;;;;;5.07;3.63;;;;;;;22.96;60.93;94119.47;2963867;40;20111;-69
2021/07/17 02:03:14;;;;;;;6.25;4.15;;;;;;;22.99;60.85;94116.28;2965967;40;20052;-69
2021/07/17 02:05:17;;;;;;;5.68;3.80;;;;;;;23.03;60.86;94117.44;2965845;40;20480;-70
2021/07/17 02:07:19;;;;;;;10.80;3.47;;;;;;;23.08;60.75;94122.81;2968000;40;20044;-68
2021/07/17 02:09:21;;;;;;;4.40;3.22;;;;;;;23.07;60.42;94118.53;2965944;40;20145;-69
2021/07/17 02:11:23;;;;;;;6.65;3.28;;;;;;;23.11;60.46;94119.66;2965811;40;20055;-68
2021/07/17 02:13:25;;;;;;;4.28;2.72;;;;;;;23.16;60.37;94114.34;2966640;40;20278;-68
2021/07/17 02:15:28;;;;;;;5.78;3.42;;;;;;;23.20;60.11;94117.34;2966418;40;20068;-69
2021/07/17 02:17:30;;;;;;;5.78;3.15;;;;;;;23.19;60.13;94113.88;2966177;40;20058;-70
2021/07/17 02:19:32;;;;;;;4.20;3.30;;;;;;;23.23;60.25;94108.81;2963939;40;20048;-69
2021/07/17 02:21:34;;;;;;;6.72;3.30;;;;;;;23.28;59.92;94104.34;2964549;40;20236;-82
2021/07/17 02:23:37;;;;;;;6.65;3.35;;;;;;;23.33;59.93;94114.25;2969762;40;20406;-82
2021/07/17 02:25:39;;;;;;;6.88;3.30;;;;;;;23.38;59.66;94108.16;2964130;40;20301;-81
2021/07/17 02:27:40;;;;;;;4.32;3.28;;;;;;;23.44;59.46;94107.16;2966422;40;20054;-70
2021/07/17 02:29:42;;;;;;;4.10;2.95;;;;;;;23.38;59.56;94108.16;2965889;40;20067;-70
2021/07/17 02:31:44;;;;;;;4.60;3.28;;;;;;;23.29;59.83;94111.28;2962053;40;20144;-70
2021/07/17 02:33:46;;;;;;;5.32;3.25;;;;;;;23.25;59.87;94104.03;2963467;40;20310;-68
2021/07/17 02:35:48;;;;;;;7.82;2.92;;;;;;;23.25;60.10;94101.34;2965939;40;20137;-72
2021/07/17 02:37:50;;;;;;;4.03;3.10;;;;;;;23.26;59.89;94106.44;2966521;40;20064;-68
2021/07/17 02:39:52;;;;;;;7.13;3.35;;;;;;;23.24;60.20;94108.56;2964554;40;20451;-69
2021/07/17 02:41:54;;;;;;;5.25;3.10;;;;;;;23.21;59.85;94102.91;2959559;40;20049;-69
2021/07/17 02:43:56;;;;;;;5.75;3.45;;;;;;;23.15;60.51;94103.94;2963823;40;20064;-68
2021/07/17 02:45:58;;;;;;;6.80;3.35;;;;;;;23.07;60.86;94097.16;2964860;40;20060;-69
2021/07/17 02:48:00;;;;;;;3.92;3.22;;;;;;;22.96;60.77;94103.44;2965475;40;20464;-68
2021/07/17 02:50:03;;;;;;;4.28;3.05;;;;;;;22.97;60.91;94099.69;2966892;40;20036;-69
2021/07/17 02:52:05;;;;;;;4.25;3.35;;;;;;;23.02;60.69;94100.59;2964313;40;20102;-83
2021/07/17 02:54:09;;;;;;;5.50;3.25;;;;;;;23.04;60.67;94103.03;2967569;40;20105;-83
2021/07/17 02:56:11;;;;;;;4.22;3.10;;;;;;;22.70;62.04;94106.63;2968200;40;20064;-82
2021/07/17 02:58:13;;;;;;;4.25;3.35;;;;;;;22.52;62.64;94098.94;2966567;40;20068;-83
2021/07/17 03:00:15;;;;;;;7.75;3.40;;;;;;;22.29;63.19;94092.75;2966883;40;20278;-82
2021/07/17 03:02:17;;;;;;;8.80;3.40;;;;;;;22.24;63.25;94103.38;2968422;40;20359;-82
2021/07/17 03:04:19;;;;;;;7.13;3.15;;;;;;;22.07;63.97;94099.91;2966261;40;20328;-82
2021/07/17 03:06:20;;;;;;;3.72;3.08;;;;;;;22.11;63.31;94098.31;2963313;40;20101;-82
2021/07/17 03:08:23;;;;;;;5.97;3.25;;;;;;;22.06;63.68;94093.72;2967173;40;20451;-82
2021/07/17 03:10:25;;;;;;;6.68;3.60;;;;;;;22.08;63.45;94096.97;2967743;40;20152;-84
2021/07/17 03:12:26;;;;;;;5.07;3.20;;;;;;;21.92;63.44;94089.81;2967728;40;20296;-83
2021/07/17 03:14:28;;;;;;;6.75;3.05;;;;;;;21.94;63.27;94093.03;2968712;40;20056;-82
2021/07/17 03:16:31;;;;;;;5.22;2.90;;;;;;;22.05;63.14;94094.81;2967594;40;20056;-84
2021/07/17 03:18:33;;;;;;;5.88;2.95;;;;;;;22.26;62.05;94097.78;2963197;40;20064;-82
2021/07/17 03:20:35;;;;;;;5.15;3.00;;;;;;;22.46;61.37;94099.91;2970407;40;20350;-82
2021/07/17 03:22:37;;;;;;;5.40;3.10;;;;;;;22.64;60.60;94094.25;2968855;40;20139;-82
2021/07/17 03:24:38;;;;;;;4.85;3.10;;;;;;;22.78;59.50;94096.53;2971331;40;20428;-80
2021/07/17 03:26:40;;;;;;;4.70;2.90;;;;;;;22.65;59.20;94092.38;2965431;40;20138;-69
2021/07/17 03:28:42;;;;;;;4.25;3.45;;;;;;;22.61;59.24;94104.66;2966247;40;20382;-69
2021/07/17 03:30:44;;;;;;;4.00;2.95;;;;;;;22.39;58.91;94101.94;2962190;40;20069;-69
2021/07/17 03:32:46;;;;;;;4.68;3.20;;;;;;;22.37;59.04;94106.72;2966213;40;20083;-69
2021/07/17 03:34:47;;;;;;;3.92;3.10;;;;;;;22.33;57.96;94103.75;2967472;40;20084;-69
2021/07/17 03:36:49;;;;;;;4.53;2.30;;;;;;;22.35;57.82;94108.81;2966574;40;20048;-69
2021/07/17 03:38:51;;;;;;;5.45;2.90;;;;;;;22.41;56.93;94105.16;2968797;40;20128;-69
2021/07/17 03:40:53;;;;;;;4.15;2.80;;;;;;;22.17;57.39;94100.03;2970913;40;20424;-69
2021/07/17 03:42:55;;;;;;;6.07;3.13;;;;;;;22.12;57.46;94099.16;2968871;40;20077;-69
2021/07/17 03:44:57;;;;;;;5.13;3.05;;;;;;;21.79;57.59;94104.28;2966899;40;20041;-69
2021/07/17 03:46:59;;;;;;;6.72;3.03;;;;;;;21.77;58.15;94105.56;2958393;40;20052;-70
2021/07/17 03:49:01;;;;;;;5.38;3.00;;;;;;;21.72;58.28;94102.81;2969007;40;20049;-82
2021/07/17 03:51:03;;;;;;;7.30;3.13;;;;;;;21.82;58.17;94097.66;2969712;40;20148;-82
2021/07/17 03:53:05;;;;;;;6.47;3.25;;;;;;;21.66;58.75;94101.91;2968672;40;20096;-82
2021/07/17 03:55:07;;;;;;;5.75;3.53;;;;;;;21.50;60.07;94100.88;2973954;40;20137;-83
2021/07/17 03:57:09;;;;;;;4.70;3.67;;;;;;;21.41;60.68;94104.97;2960553;40;20503;-81
2021/07/17 03:59:11;;;;;;;5.05;3.70;;;;;;;21.57;60.47;94098.84;2959659;40;20186;-82
2021/07/17 04:01:13;;;;;;;5.82;3.88;;;;;;;21.56;61.10;94094.59;2968971;40;20045;-84
2021/07/17 04:03:15;;;;;;;5.32;3.70;;;;;;;21.38;61.89;94102.75;2969141;40;20056;-83
2021/07/17 04:05:19;;;;;;;7.88;3.88;;;;;;;21.15;62.95;94106.38;2969506;40;20048;-75
2021/07/17 04:07:21;;;;;;;7.40;4.07;;;;;;;21.15;63.45;94104.53;2962957;40;20067;-70
2021/07/17 04:09:23;;;;;;;8.18;3.85;;;;;;;21.15;63.85;94101.84;2966289;40;20094;-69
2021/07/17 04:11:25;;;;;;;8.02;4.30;;;;;;;21.25;63.88;94102.03;2967065;40;20439;-70
2021/07/17 04:13:26;;;;;;;5.68;4.50;;;;;;;21.38;63.99;94106.25;2967711;40;20389;-70
2021/07/17 04:15:28;;;;;;;6.07;4.43;;;;;;;21.44;64.28;94091.97;2967138;40;20394;-69
2021/07/17 04:17:30;;;;;;;6.20;4.78;;;;;;;21.23;65.43;94096.16;2966582;40;20052;-69
2021/07/17 04:19:32;;;;;;;5.97;4.75;;;;;;;21.23;65.88;94097.97;2966413;40;20122;-69
2021/07/17 04:21:33;;;;;;;7.53;4.85;;;;;;;21.10;66.63;94100.94;2966956;40;20066;-70
2021/07/17 04:23:35;;;;;;;6.95;4.70;;;;;;;21.24;66.34;94102.28;2967515;40;20056;-69
2021/07/17 04:25:37;;;;;;;10.77;5.30;;;;;;;21.23;66.32;94098.81;2967085;40;20068;-68
2021/07/17 04:27:39;;;;;;;7.32;4.75;;;;;;;21.26;66.23;94093.00;2959352;40;20112;-69
2021/07/17 04:29:41;;;;;;;8.23;5.65;;;;;;;21.32;66.12;94098.41;2964040;40;20080;-69
2021/07/17 04:31:43;;;;;;;10.98;4.72;;;;;;;21.27;66.40;94099.94;2966612;40;20067;-69
2021/07/17 04:33:45;;;;;;;7.38;5.30;;;;;;;21.27;66.34;94101.78;2973505;40;20408;-68
2021/07/17 04:35:47;;;;;;;7.47;5.00;;;;;;;21.32;66.31;94098.41;2970517;40;20088;-70
2021/07/17 04:37:48;;;;;;;7.00;4.78;;;;;;;21.25;66.59;94110.03;2967354;40;20040;-68
2021/07/17 04:39:51;;;;;;;10.00;5.18;;;;;;;21.48;65.87;94103.78;2972109;40;20055;-69
2021/07/17 04:41:53;;;;;;;6.65;4.78;;;;;;;21.58;65.53;94102.34;2960322;40;20147;-68
2021/07/17 04:43:56;;;;;;;6.45;4.85;;;;;;;21.77;64.91;94106.38;2954363;40;20109;-69
2021/07/17 04:45:57;;;;;;;10.27;5.57;;;;;;;21.95;64.24;94112.50;2957203;40;20053;-69
2021/07/17 04:48:03;;;;;;;9.77;5.50;;;;;;;22.11;63.68;94105.53;2958327;40;20033;-69
2021/07/17 04:50:06;;;;;;;9.98;5.18;;;;;;;22.28;63.04;94101.81;2964090;40;20084;-69
2021/07/17 04:52:08;;;;;;;8.97;5.03;;;;;;;22.46;62.67;94105.25;2965785;40;20093;-68
2021/07/17 04:54:10;;;;;;;8.93;5.00;;;;;;;22.45;62.27;94099.09;2964625;40;20299;-70
2021/07/17 04:56:11;;;;;;;10.63;5.78;;;;;;;22.27;63.06;94102.88;2964178;40;20402;-68
2021/07/17 04:58:13;;;;;;;10.15;5.68;;;;;;;22.18;63.28;94101.66;2963038;40;20052;-68
2021/07/17 05:00:18;;;;;;;6.35;5.20;;;;;;;22.15;62.87;94101.31;2957157;40;20477;-69
2021/07/17 05:02:20;;;;;;;8.63;5.35;;;;;;;22.11;63.49;94106.34;2974083;40;20393;-69
2021/07/17 05:04:22;;;;;;;8.02;5.00;;;;;;;21.99;63.48;94101.09;2966088;40;20056;-69
2021/07/17 05:06:24;;;;;;;6.57;5.15;;;;;;;22.08;63.15;94093.50;2959760;40;20141;-69
2021/07/17 05:08:25;;;;;;;12.38;5.55;;;;;;;22.23;63.01;94092.94;2970091;40;20052;-68
2021/07/17 05:10:27;;;;;;;7.72;4.95;;;;;;;22.52;62.18;94092.75;2965943;40;20040;-70
2021/07/17 05:12:29;;;;;;;11.95;5.93;;;;;;;22.80;61.25;94084.59;2964624;40;20053;-70
2021/07/17 05:14:30;;;;;;;10.52;5.25;;;;;;;22.86;60.31;94074.75;2966634;40;20326;-68
2021/07/17 05:16:32;;;;;;;10.63;5.65;;;;;;;22.93;59.91;94079.88;2956631;40;20406;-70
2021/07/17 05:18:34;;;;;;;8.30;5.53;;;;;;;22.75;59.73;94084.50;2965392;40;20060;-71
2021/07/17 05:20:35;;;;;;;8.43;5.82;;;;;;;22.82;59.82;94078.97;2967292;40;20057;-70
2021/07/17 05:22:37;;;;;;;9.20;5.10;;;;;;;22.97;58.95;94078.34;2966048;40;20060;-68
2021/07/17 05:24:40;;;;;;;11.07;6.32;;;;;;;22.86;59.19;94080.88;2963582;40;20061;-70
2021/07/17 05:26:42;;;;;;;12.18;5.88;;;;;;;22.83;59.02;94070.72;2962671;40;20413;-69
2021/07/17 05:28:44;;;;;;;8.23;5.30;;;;;;;22.96;58.10;94074.06;2967694;40;20079;-69
2021/07/17 05:30:45;;;;;;;12.20;5.15;;;;;;;23.15;58.32;94074.56;2971681;40;20088;-69
2021/07/17 05:32:47;;;;;;;6.03;5.07;;;;;;;23.22;56.97;94075.94;2964415;40;20041;-69
2021/07/17 05:34:49;;;;;;;7.53;4.45;;;;;;;23.31;56.86;94070.94;2972210;40;20040;-68
2021/07/17 05:36:51;;;;;;;7.90;4.82;;;;;;;23.55;56.34;94073.28;2963785;40;20077;-69
2021/07/17 05:38:52;;;;;;;10.27;4.32;;;;;;;23.67;55.23;94077.41;2964010;40;20057;-69
2021/07/17 05:40:54;;;;;;;8.50;4.55;;;;;;;23.78;54.67;94072.16;2966702;40;20101;-70
2021/07/17 05:42:56;;;;;;;9.00;4.38;;;;;;;23.91;54.42;94077.06;2966204;40;20182;-70
2021/07/17 05:44:58;;;;;;;8.07;4.22;;;;;;;23.87;54.34;94081.31;2966528;40;20056;-69
2021/07/17 05:47:00;;;;;;;9.90;4.60;;;;;;;23.96;52.45;94074.41;2972634;40;20184;-69
2021/07/17 05:49:02;;;;;;;6.63;3.85;;;;;;;24.11;53.06;94084.41;2949215;40;20061;-69
2021/07/17 05:51:03;;;;;;;6.80;4.15;;;;;;;24.28;52.54;94076.22;2965738;40;20149;-69
2021/07/17 05:53:07;;;;;;;7.90;4.07;;;;;;;24.16;52.79;94072.97;2963049;40;20056;-70
2021/07/17 05:55:12;;;;;;;8.00;4.30;;;;;;;24.38;52.16;94073.59;2963783;40;20129;-69
2021/07/17 05:57:14;;;;;;;9.70;4.25;;;;;;;24.59;51.77;94076.41;2966006;40;20133;-69
2021/07/17 05:59:15;;;;;;;10.73;4.20;;;;;;;24.78;51.63;94072.22;2965384;40;20056;-69
2021/07/17 06:01:17;;;;;;;6.90;4.10;;;;;;;24.83;50.99;94072.22;2950869;40;20061;-69
2021/07/17 06:03:19;;;;;;;6.28;4.20;;;;;;;24.93;50.56;94074.94;2966229;40;20040;-69
2021/07/17 06:05:21;;;;;;;10.55;4.05;;;;;;;24.99;50.30;94066.91;2965692;40;20149;-70
2021/07/17 06:07:22;;;;;;;9.43;4.32;;;;;;;24.96;50.60;94067.44;2966666;40;20681;-69
2021/07/17 06:09:24;;;;;;;8.40;4.25;;;;;;;24.87;49.69;94070.63;2972656;40;20060;-71
2021/07/17 06:11:26;;;;;;;7.65;3.88;;;;;;;24.78;49.03;94072.22;2961057;40;20041;-70
2021/07/17 06:13:28;;;;;;;6.95;4.40;;;;;;;24.75;48.50;94069.25;2966372;40;20194;-70
2021/07/17 06:15:30;;;;;;;6.73;4.20;;;;;;;24.94;49.01;94065.81;2971189;40;20080;-70
2021/07/17 06:17:32;;;;;;;6.60;4.30;;;;;;;24.98;48.80;94052.69;2967260;40;20105;-69
2021/07/17 06:19:34;;;;;;;8.68;4.65;;;;;;;25.17;48.90;94058.38;2964925;40;20045;-68
2021/07/17 06:21:36;;;;;;;9.82;4.00;;;;;;;25.21;48.24;94059.47;2968616;40;20052;-69
2021/07/17 06:23:38;;;;;;;12.73;4.50;;;;;;;25.31;47.79;94059.47;2969446;40;20032;-70
2021/07/17 06:25:39;;;;;;;9.60;3.30;;;;;;;25.32;47.04;94049.56;2966292;40;20141;-69
2021/07/17 06:27:41;;;;;;;7.38;3.58;;;;;;;25.37;47.24;94046.09;2957534;40;20085;-68
2021/07/17 06:29:43;;;;;;;7.15;3.40;;;;;;;25.45;46.11;94046.38;2957649;40;20127;-69
2021/07/17 06:31:44;;;;;;;5.47;3.00;;;;;;;25.59;44.75;94041.25;2959914;40;20079;-68
2021/07/17 06:33:47;;;;;;;7.82;3.30;;;;;;;25.46;45.04;94036.44;2966149;40;20104;-70
2021/07/17 06:35:49;;;;;;;8.52;3.42;;;;;;;25.47;44.71;94035.38;2948821;40;20057;-70
2021/07/17 06:37:50;;;;;;;6.13;3.20;;;;;;;25.63;44.65;94041.53;2966439;40;20109;-69
2021/07/17 06:39:52;;;;;;;6.07;3.50;;;;;;;25.82;44.40;94036.44;2964781;40;20060;-68
2021/07/17 06:41:54;;;;;;;7.03;3.17;;;;;;;25.88;43.99;94027.28;2963539;40;20053;-69
2021/07/17 06:43:57;;;;;;;8.13;3.03;;;;;;;25.99;43.62;94036.16;2967919;40;20125;-70
2021/07/17 06:45:59;;;;;;;5.82;2.70;;;;;;;26.05;42.60;94035.06;2966639;40;20514;-69
2021/07/17 06:48:00;;;;;;;4.22;2.70;;;;;;;26.11;41.73;94034.78;2970941;40;20644;-70
2021/07/17 06:50:03;;;;;;;4.88;2.90;;;;;;;26.06;41.60;94031.31;2964569;40;20243;-69
2021/07/17 06:52:05;;;;;;;6.55;3.40;;;;;;;26.13;41.82;94039.88;2957990;40;20060;-68
2021/07/17 06:54:07;;;;;;;7.70;3.00;;;;;;;26.19;41.50;94029.94;2964461;40;20100;-69
2021/07/17 06:56:09;;;;;;;6.10;2.55;;;;;;;26.22;40.84;94035.56;2960297;40;20060;-71
2021/07/17 06:58:10;;;;;;;6.60;2.70;;;;;;;26.31;40.65;94025.88;2970794;40;20091;-84
2021/07/17 07:00:14;;;;;;;5.68;2.40;;;;;;;26.33;40.23;94025.59;2964407;40;20336;-83
2021/07/17 07:02:16;;;;;;;11.10;2.40;;;;;;;26.32;40.46;94021.28;2968738;40;20088;-82
2021/07/17 07:04:18;;;;;;;6.20;2.80;;;;;;;26.25;40.19;94024.28;2966006;40;20080;-84
2021/07/17 07:06:20;;;;;;;6.32;2.60;;;;;;;26.33;40.11;94020.25;2969916;40;20048;-83
2021/07/17 07:08:22;;;;;;;6.60;2.30;;;;;;;26.32;39.63;94026.66;2971560;40;20140;-82
2021/07/17 07:10:23;;;;;;;6.20;2.38;;;;;;;26.33;39.82;94021.03;2972297;40;20052;-82
2021/07/17 07:12:25;;;;;;;3.35;2.30;;;;;;;26.41;39.91;94018.84;2969964;40;20053;-82
2021/07/17 07:14:27;;;;;;;7.07;2.35;;;;;;;26.23;39.57;94015.69;2960527;40;20039;-70
2021/07/17 07:16:29;;;;;;;5.95;2.63;;;;;;;26.21;39.81;94012.47;2967901;40;20432;-70
2021/07/17 07:18:31;;;;;;;5.10;2.72;;;;;;;26.27;39.66;94007.91;2963081;40;20052;-68
2021/07/17 07:20:33;;;;;;;6.18;2.60;;;;;;;26.43;39.54;94001.38;2969045;40;20060;-81
2021/07/17 07:22:36;;;;;;;4.13;2.17;;;;;;;26.55;39.47;94009.13;2969294;40;20408;-85
2021/07/17 07:24:37;;;;;;;5.60;2.53;;;;;;;26.50;39.97;94018.03;2969380;40;20044;-82
2021/07/17 07:26:39;;;;;;;5.88;2.50;;;;;;;26.67;39.66;94012.34;2968429;40;20084;-83
2021/07/17 07:28:41;;;;;;;5.63;2.42;;;;;;;26.82;39.57;94007.94;2966544;40;20108;-81
2021/07/17 07:30:43;;;;;;;8.00;2.78;;;;;;;27.07;39.12;94012.38;2966077;40;20060;-82
2021/07/17 07:32:45;;;;;;;7.38;2.30;;;;;;;27.15;38.69;94014.47;2969615;40;20528;-82
2021/07/17 07:34:46;;;;;;;8.15;2.65;;;;;;;27.12;38.60;94010.44;2968810;40;20125;-83
2021/07/17 07:36:49;;;;;;;3.72;2.30;;;;;;;26.98;39.01;94020.22;2959920;40;20585;-85
2021/07/17 07:38:52;;;;;;;6.35;2.45;;;;;;;27.04;39.10;94020.97;2969459;40;20129;-83
2021/07/17 07:40:54;;;;;;;9.23;2.30;;;;;;;27.12;38.81;94015.00;2965334;40;20060;-85
2021/07/17 07:42:56;;;;;;;8.80;2.42;;;;;;;27.17;39.02;94023.06;2968703;40;20040;-83
2021/07/17 07:44:57;;;;;;;5.05;2.38;;;;;;;27.27;38.73;94028.38;2968341;40;20064;-83
2021/07/17 07:46:59;;;;;;;7.05;2.55;;;;;;;27.21;38.53;94025.97;2968867;40;20424;-83
2021/07/17 07:49:03;;;;;;;8.10;2.40;;;;;;;27.24;38.99;94034.31;2967952;40;20056;-83
2021/07/17 07:51:05;;;;;;;7.35;2.92;;;;;;;27.36;39.07;94032.09;2969860;40;20068;-82
2021/07/17 07:53:06;;;;;;;9.00;2.70;;;;;;;27.50;38.98;94036.84;2960436;40;20057;-84
2021/07/17 07:55:09;;;;;;;4.80;2.72;;;;;;;27.67;38.21;94034.53;2969161;40;20092;-83
2021/07/17 07:57:10;;;;;;;6.55;2.42;;;;;;;27.84;37.39;94036.03;2965026;40;20057;-85
2021/07/17 07:59:12;;;;;;;8.93;2.22;;;;;;;28.07;37.42;94034.47;2969074;40;20059;-86
2021/07/17 08:01:14;;;;;;;7.35;2.53;;;;;;;28.18;37.05;94031.41;2968143;40;20057;-82
2021/07/17 08:03:16;;;;;;;4.88;2.70;;;;;;;28.16;37.03;94036.25;2955170;40;20453;-85
2021/07/17 08:05:18;;;;;;;4.32;2.15;;;;;;;28.10;36.92;94034.72;2966699;40;20064;-82
2021/07/17 08:07:19;;;;;;;5.38;2.60;;;;;;;28.12;36.68;94032.53;2967908;40;20079;-83
2021/07/17 08:09:25;;;;;;;5.13;2.35;;;;;;;28.26;36.64;94024.56;2967730;40;20321;-84
2021/07/17 08:11:26;;;;;;;6.45;2.53;;;;;;;28.37;36.17;94020.69;2968426;40;20117;-86
2021/07/17 08:13:28;;;;;;;8.63;2.78;;;;;;;28.42;36.35;94019.81;2968740;40;20145;-82
2021/07/17 08:15:31;;;;;;;3.97;2.35;;;;;;;28.38;35.99;94032.25;2968100;40;20545;-83
2021/07/17 08:17:32;;;;;;;4.47;2.28;;;;;;;28.32;35.68;94026.13;2974509;40;20067;-83
2021/07/17 08:19:34;;;;;;;4.68;2.88;;;;;;;28.19;35.81;94019.53;2974148;40;20048;-83
2021/07/17 08:21:36;;;;;;;21.27;13.82;;;;;;;28.13;35.75;94022.56;2968829;40;20255;-84
2021/07/17 08:23:38;;;;;;;23.48;14.30;;;;;;;28.27;35.43;94023.50;2969259;40;20406;-71
2021/07/17 08:25:40;;;;;;;7.70;3.10;;;;;;;28.47;35.55;94022.44;2967140;40;20498;-68
2021/07/17 08:27:41;;;;;;;7.85;2.65;;;;;;;28.65;35.74;94017.41;2954128;40;20061;-71
2021/07/17 08:29:43;;;;;;;4.20;2.15;;;;;;;28.83;35.08;94016.66;2970571;40;20530;-69
2021/07/17 08:31:45;;;;;;;3.92;2.33;;;;;;;28.84;34.99;94009.34;2960035;40;20056;-70
2021/07/17 08:33:47;;;;;;;5.93;2.30;;;;;;;28.62;35.08;94002.63;2967687;40;20451;-69
2021/07/17 08:35:48;;;;;;;11.68;2.60;;;;;;;28.69;35.10;94004.97;2970333;40;20052;-69
2021/07/17 08:37:50;;;;;;;6.38;2.15;;;;;;;28.87;34.77;94001.50;2965755;40;20044;-69
2021/07/17 08:39:52;;;;;;;6.82;2.00;;;;;;;28.73;34.04;94001.41;2970288;40;20197;-69
2021/07/17 08:41:54;;;;;;;5.53;2.22;;;;;;;28.84;33.69;93998.56;2965741;40;20142;-70
2021/07/17 08:43:57;;;;;;;6.57;2.50;;;;;;;28.72;33.75;93997.13;2960561;40;20057;-70
2021/07/17 08:45:59;;;;;;;7.03;2.35;;;;;;;28.92;33.61;94001.41;2955388;40;20328;-69
2021/07/17 08:48:01;;;;;;;3.50;1.92;;;;;;;28.93;33.40;94003.03;2962823;40;20092;-70
2021/07/17 08:50:04;;;;;;;5.87;2.40;;;;;;;28.98;32.73;93994.88;2957177;40;20061;-70
2021/07/17 08:52:06;;;;;;;;;;;;;;;29.04;33.18;93997.47;2966896;40;20345;-69
2021/07/17 08:54:08;;;;;;;7.95;2.35;;;;;;;29.11;32.76;93993.38;2965338;40;20012;-70
2021/07/17 08:56:10;;;;;;;11.15;2.45;;;;;;;29.11;32.43;93987.19;2966596;40;20088;-69
2021/07/17 08:58:12;;;;;;;4.90;2.08;;;;;;;29.18;32.07;93987.59;2966606;40;20060;-70
2021/07/17 09:00:17;;;;;;;7.97;2.20;;;;;;;29.23;32.10;93984.03;2963667;40;20060;-72
2021/07/17 09:02:26;;;;;;;6.20;2.45;;;;;;;29.37;32.05;93980.28;2959741;40;20053;-69
2021/07/17 09:04:28;;;;;;;3.42;2.15;;;;;;;29.51;31.81;93984.91;2961958;40;20060;-70
2021/07/17 09:06:31;;;;;;;5.10;2.22;;;;;;;29.42;31.47;93986.69;2965287;40;20041;-71
2021/07/17 09:08:33;;;;;;;8.10;2.20;;;;;;;29.37;31.30;93988.38;2966007;40;20047;-72
2021/07/17 09:10:46;;;;;;;8.68;2.03;;;;;;;29.49;31.85;93987.09;2971103;40;20091;-70
2021/07/17 09:13:23;;;;;;;7.45;2.35;;;;;;;29.44;31.45;93977.22;2951730;40;20049;-71
2021/07/17 09:15:25;;;;;;;6.25;1.77;;;;;;;29.31;31.38;93986.06;2967661;40;20056;-70
2021/07/17 09:17:28;;;;;;;3.72;2.10;;;;;;;29.22;31.19;93980.53;2972571;40;20475;-70
2021/07/17 09:19:31;;;;;;;8.32;2.35;;;;;;;29.46;31.54;93987.72;2964328;40;20394;-69
2021/07/17 09:21:37;;;;;;;8.30;2.30;;;;;;;29.76;31.08;93986.44;2967959;40;20052;-69
2021/07/17 09:23:53;;;;;;;5.93;2.10;;;;;;;29.78;30.52;93987.72;2961548;40;20372;-69
2021/07/17 09:25:56;;;;;;;6.10;2.33;;;;;;;29.92;30.25;93966.16;2972261;40;20127;-68
2021/07/17 09:28:24;;;;;;;5.00;2.13;;;;;;;29.89;29.99;93968.66;2950498;40;20065;-69
2021/07/17 09:30:26;;;;;;;8.13;3.20;;;;;;;29.95;29.81;93970.16;2961766;40;20073;-70
2021/07/17 09:32:27;;;;;;;5.20;2.13;;;;;;;29.96;29.72;93966.34;2965614;40;20088;-69
2021/07/17 09:34:33;;;;;;;6.32;2.45;;;;;;;29.97;29.33;93965.25;2964878;40;20048;-71
2021/07/17 09:36:51;;;;;;;4.47;1.83;;;;;;;29.81;29.25;93972.81;2972098;40;20064;-71